PWSweather.com
Personal Weather Stations
Station Observations
WHHZ1080
Hladke ZivoticeCZ 742 47

Hladke ZivoticeCZ 742 47

Lat: 49.6818201, Lon: 17.94963610000002

Elevation: 282

Station Type: Davis Vantage Vue

http://wh1080.m-zone.cz/

High Low Average
Temperature 88.3°F31.3°F 54.4°F12.4°F 72.8°F22.7°F
Dew Point 67.6°F19.8°F 48.7°F9.3°F 60.4°F15.8°F
Winds 16.0 mph -25.7 mph - Calm Calm 4.5 mph 7.2 mph
Wind Gusts 33.0 mph53.1 mph -- 10.2 mph16.4 mph
Humidity 90% 42% 68%
Pressure 30.09 in1019.00 in 29.77 in1008.10 in -
Precipitation 2.10 in53.30 in - -
Hour Temp Dew Point Humidity Winds Wind Gusts Pressure Precip Precip Rate Daily Precip Total
12:00 AM 61.4°F16.3°C 56.5°F13.6°C 84% Calm Calm -- 30.09 in1019.0 mb 0.00 in0.0 mm 0.00 in0.0 mm 0.00 in0.0 mm
12:05 AM 61.3°F16.3°C 56.4°F13.6°C 84% Calm Calm -- 30.09 in1019.0 mb 0.00 in0.0 mm 0.00 in0.0 mm 0.00 in0.0 mm
12:10 AM 61.2°F16.2°C 56.3°F13.5°C 84% Calm Calm -- 30.09 in1019.0 mb 0.00 in0.0 mm 0.00 in0.0 mm 0.00 in0.0 mm
12:15 AM 61.1°F16.2°C 56.2°F13.4°C 84% Calm Calm -- 30.09 in1019.0 mb 0.00 in0.0 mm 0.00 in0.0 mm 0.00 in0.0 mm
12:20 AM 60.9°F16.1°C 56.0°F13.3°C 84% Calm Calm -- 30.09 in1019.0 mb 0.00 in0.0 mm 0.00 in0.0 mm 0.00 in0.0 mm
12:25 AM 60.9°F16.1°C 56.4°F13.6°C 85% Calm Calm -- 30.09 in1019.0 mb 0.00 in0.0 mm 0.00 in0.0 mm 0.00 in0.0 mm
12:30 AM 60.6°F15.9°C 55.7°F13.2°C 84% Calm Calm -- 30.09 in1019.0 mb 0.00 in0.0 mm 0.00 in0.0 mm 0.00 in0.0 mm
12:35 AM 60.0°F15.6°C 55.5°F13.1°C 85% Calm Calm -- 30.09 in1019.0 mb 0.00 in0.0 mm 0.00 in0.0 mm 0.00 in0.0 mm
12:40 AM 59.7°F15.4°C 55.5°F13.1°C 86% Calm Calm -- 30.09 in1019.0 mb 0.00 in0.0 mm 0.00 in0.0 mm 0.00 in0.0 mm
12:45 AM 59.4°F15.2°C 55.5°F13.1°C 87% Calm Calm -- 30.09 in1019.0 mb 0.00 in0.0 mm 0.00 in0.0 mm 0.00 in0.0 mm
12:50 AM 59.3°F15.2°C 55.7°F13.2°C 88% Calm Calm -- 30.08 in1018.6 mb 0.00 in0.0 mm 0.00 in0.0 mm 0.00 in0.0 mm
12:55 AM 59.1°F15.1°C 55.5°F13.1°C 88% Calm Calm -- 30.08 in1018.6 mb 0.00 in0.0 mm 0.00 in0.0 mm 0.00 in0.0 mm
01:00 AM 59.1°F15.1°C 55.5°F13.1°C 88% Calm Calm -- 30.08 in1018.6 mb 0.00 in0.0 mm 0.00 in0.0 mm 0.00 in0.0 mm
01:05 AM 59.1°F15.1°C 55.5°F13.1°C 88% Calm Calm -- 30.08 in1018.6 mb 0.00 in0.0 mm 0.00 in0.0 mm 0.00 in0.0 mm
01:10 AM 59.1°F15.1°C 55.9°F13.3°C 89% Calm Calm -- 30.08 in1018.6 mb 0.00 in0.0 mm 0.00 in0.0 mm 0.00 in0.0 mm
01:15 AM 59.1°F15.1°C 55.5°F13.1°C 88% Calm Calm -- 30.08 in1018.6 mb 0.00 in0.0 mm 0.00 in0.0 mm 0.00 in0.0 mm
01:20 AM 58.9°F14.9°C 55.4°F13.0°C 88% Calm Calm -- 30.08 in1018.6 mb 0.00 in0.0 mm 0.00 in0.0 mm 0.00 in0.0 mm
01:25 AM 58.8°F14.9°C 55.6°F13.1°C 89% Calm Calm -- 30.08 in1018.6 mb 0.00 in0.0 mm 0.00 in0.0 mm 0.00 in0.0 mm
01:30 AM 58.7°F14.8°C 55.5°F13.1°C 89% Calm Calm -- 30.08 in1018.6 mb 0.00 in0.0 mm 0.00 in0.0 mm 0.00 in0.0 mm
01:35 AM 58.7°F14.8°C 55.5°F13.1°C 89% Calm Calm -- 30.08 in1018.6 mb 0.00 in0.0 mm 0.00 in0.0 mm 0.00 in0.0 mm
01:40 AM 58.6°F14.8°C 55.4°F13.0°C 89% Calm Calm -- 30.08 in1018.6 mb 0.00 in0.0 mm 0.00 in0.0 mm 0.00 in0.0 mm
01:45 AM 58.6°F14.8°C 55.4°F13.0°C 89% Calm Calm -- 30.08 in1018.6 mb 0.00 in0.0 mm 0.00 in0.0 mm 0.00 in0.0 mm
01:50 AM 58.5°F14.7°C 55.3°F12.9°C 89% Calm Calm -- 30.07 in1018.3 mb 0.00 in0.0 mm 0.00 in0.0 mm 0.00 in0.0 mm
01:55 AM 58.6°F14.8°C 55.4°F13.0°C 89% Calm Calm -- 30.07 in1018.3 mb 0.00 in0.0 mm 0.00 in0.0 mm 0.00 in0.0 mm
02:00 AM 58.5°F14.7°C 55.3°F12.9°C 89% Calm Calm -- 30.07 in1018.3 mb 0.00 in0.0 mm 0.00 in0.0 mm 0.00 in0.0 mm
02:05 AM 58.6°F14.8°C 55.7°F13.2°C 90% Calm Calm -- 30.07 in1018.3 mb 0.00 in0.0 mm 0.00 in0.0 mm 0.00 in0.0 mm
02:10 AM 58.9°F14.9°C 56.0°F13.3°C 90% Calm Calm -- 30.07 in1018.3 mb 0.00 in0.0 mm 0.00 in0.0 mm 0.00 in0.0 mm
02:15 AM 59.0°F15.0°C 55.8°F13.2°C 89% Calm Calm -- 30.07 in1018.3 mb 0.00 in0.0 mm 0.00 in0.0 mm 0.00 in0.0 mm
02:20 AM 59.3°F15.2°C 56.1°F13.4°C 89% Calm Calm -- 30.07 in1018.3 mb 0.00 in0.0 mm 0.00 in0.0 mm 0.00 in0.0 mm
02:25 AM 59.6°F15.3°C 56.0°F13.3°C 88% Calm Calm -- 30.07 in1018.3 mb 0.00 in0.0 mm 0.00 in0.0 mm 0.00 in0.0 mm
02:30 AM 59.5°F15.3°C 55.9°F13.3°C 88% Calm Calm -- 30.07 in1018.3 mb 0.00 in0.0 mm 0.00 in0.0 mm 0.00 in0.0 mm
02:35 AM 59.2°F15.1°C 55.6°F13.1°C 88% Calm Calm -- 30.07 in1018.3 mb 0.00 in0.0 mm 0.00 in0.0 mm 0.00 in0.0 mm
02:40 AM 59.1°F15.1°C 55.9°F13.3°C 89% Calm Calm -- 30.07 in1018.3 mb 0.00 in0.0 mm 0.00 in0.0 mm 0.00 in0.0 mm
02:45 AM 59.1°F15.1°C 55.9°F13.3°C 89% Calm Calm -- 30.06 in1017.9 mb 0.00 in0.0 mm 0.00 in0.0 mm 0.00 in0.0 mm
02:50 AM 59.2°F15.1°C 56.3°F13.5°C 90% Calm Calm -- 30.06 in1017.9 mb 0.00 in0.0 mm 0.00 in0.0 mm 0.00 in0.0 mm
02:55 AM 59.3°F15.2°C 56.4°F13.6°C 90% Calm Calm -- 30.06 in1017.9 mb 0.00 in0.0 mm 0.00 in0.0 mm 0.00 in0.0 mm
03:00 AM 59.4°F15.2°C 56.5°F13.6°C 90% Calm Calm -- 30.06 in1017.9 mb 0.00 in0.0 mm 0.00 in0.0 mm 0.00 in0.0 mm
03:05 AM 59.5°F15.3°C 56.6°F13.7°C 90% Calm Calm -- 30.06 in1017.9 mb 0.00 in0.0 mm 0.00 in0.0 mm 0.00 in0.0 mm
03:10 AM 59.6°F15.3°C 56.7°F13.7°C 90% Calm Calm -- 30.06 in1017.9 mb 0.00 in0.0 mm 0.00 in0.0 mm 0.00 in0.0 mm
03:15 AM 59.6°F15.3°C 56.4°F13.6°C 89% Calm Calm -- 30.05 in1017.6 mb 0.00 in0.0 mm 0.00 in0.0 mm 0.00 in0.0 mm
03:20 AM 59.5°F15.3°C 56.3°F13.5°C 89% Calm Calm -- 30.05 in1017.6 mb 0.00 in0.0 mm 0.00 in0.0 mm 0.00 in0.0 mm
03:25 AM 59.4°F15.2°C 56.2°F13.4°C 89% Calm Calm -- 30.05 in1017.6 mb 0.00 in0.0 mm 0.00 in0.0 mm 0.00 in0.0 mm
03:30 AM 59.3°F15.2°C 56.1°F13.4°C 89% Calm Calm -- 30.05 in1017.6 mb 0.00 in0.0 mm 0.00 in0.0 mm 0.00 in0.0 mm
03:35 AM 59.3°F15.2°C 56.1°F13.4°C 89% Calm Calm -- 30.05 in1017.6 mb 0.00 in0.0 mm 0.00 in0.0 mm 0.00 in0.0 mm
03:40 AM 59.3°F15.2°C 56.1°F13.4°C 89% Calm Calm -- 30.05 in1017.6 mb 0.00 in0.0 mm 0.00 in0.0 mm 0.00 in0.0 mm
03:45 AM 59.3°F15.2°C 56.1°F13.4°C 89% Calm Calm -- 30.05 in1017.6 mb 0.00 in0.0 mm 0.00 in0.0 mm 0.00 in0.0 mm
03:50 AM 59.2°F15.1°C 56.0°F13.3°C 89% Calm Calm -- 30.05 in1017.6 mb 0.00 in0.0 mm 0.00 in0.0 mm 0.00 in0.0 mm
03:55 AM 59.1°F15.1°C 55.9°F13.3°C 89% Calm Calm -- 30.05 in1017.6 mb 0.00 in0.0 mm 0.00 in0.0 mm 0.00 in0.0 mm
04:00 AM 58.9°F14.9°C 55.7°F13.2°C 89% Calm Calm -- 30.05 in1017.6 mb 0.00 in0.0 mm 0.00 in0.0 mm 0.00 in0.0 mm
04:05 AM 58.7°F14.8°C 55.5°F13.1°C 89% Calm Calm -- 30.04 in1017.3 mb 0.00 in0.0 mm 0.00 in0.0 mm 0.00 in0.0 mm
04:10 AM 58.8°F14.9°C 55.9°F13.3°C 90% Calm Calm -- 30.04 in1017.3 mb 0.00 in0.0 mm 0.00 in0.0 mm 0.00 in0.0 mm
04:15 AM 58.9°F14.9°C 56.0°F13.3°C 90% Calm Calm -- 30.05 in1017.6 mb 0.00 in0.0 mm 0.00 in0.0 mm 0.00 in0.0 mm
04:20 AM 59.1°F15.1°C 56.2°F13.4°C 90% Calm Calm -- 30.04 in1017.3 mb 0.00 in0.0 mm 0.00 in0.0 mm 0.00 in0.0 mm
04:30 AM 59.7°F15.4°C 56.8°F13.8°C 90% Calm Calm -- 30.04 in1017.3 mb 0.00 in0.0 mm 0.00 in0.0 mm 0.00 in0.0 mm
04:35 AM 60.3°F15.7°C 57.0°F13.9°C 89% Calm Calm -- 30.04 in1017.3 mb 0.00 in0.0 mm 0.00 in0.0 mm 0.00 in0.0 mm
04:40 AM 60.6°F15.9°C 57.0°F13.9°C 88% Calm Calm -- 30.04 in1017.3 mb 0.00 in0.0 mm 0.00 in0.0 mm 0.00 in0.0 mm
04:45 AM 61.5°F16.4°C 57.6°F14.2°C 87% Calm Calm -- 30.04 in1017.3 mb 0.00 in0.0 mm 0.00 in0.0 mm 0.00 in0.0 mm
04:50 AM 62.4°F16.9°C 57.8°F14.3°C 85% Calm Calm -- 30.04 in1017.3 mb 0.00 in0.0 mm 0.00 in0.0 mm 0.00 in0.0 mm
04:55 AM 62.8°F17.1°C 57.9°F14.4°C 84% Calm Calm -- 30.04 in1017.3 mb 0.00 in0.0 mm 0.00 in0.0 mm 0.00 in0.0 mm
05:00 AM 62.8°F17.1°C 57.9°F14.4°C 84% Calm Calm -- 30.03 in1016.9 mb 0.00 in0.0 mm 0.00 in0.0 mm 0.00 in0.0 mm
05:05 AM 63.1°F17.3°C 58.2°F14.6°C 84% Calm Calm -- 30.03 in1016.9 mb 0.00 in0.0 mm 0.00 in0.0 mm 0.00 in0.0 mm
05:10 AM 63.7°F17.6°C 58.4°F14.7°C 83% Calm Calm -- 30.03 in1016.9 mb 0.00 in0.0 mm 0.00 in0.0 mm 0.00 in0.0 mm
05:15 AM 63.9°F17.7°C 58.6°F14.8°C 83% Calm Calm -- 30.03 in1016.9 mb 0.00 in0.0 mm 0.00 in0.0 mm 0.00 in0.0 mm
05:20 AM 64.8°F18.2°C 59.8°F15.4°C 84% Calm Calm -- 30.03 in1016.9 mb 0.00 in0.0 mm 0.00 in0.0 mm 0.00 in0.0 mm
05:25 AM 65.8°F18.8°C 60.9°F16.1°C 84% Calm Calm -- 30.03 in1016.9 mb 0.00 in0.0 mm 0.00 in0.0 mm 0.00 in0.0 mm
05:30 AM 66.7°F19.3°C 60.7°F15.9°C 81% Calm Calm -- 30.03 in1016.9 mb 0.00 in0.0 mm 0.00 in0.0 mm 0.00 in0.0 mm
05:35 AM 67.5°F19.7°C 61.1°F16.2°C 80% Calm Calm -- 30.03 in1016.9 mb 0.00 in0.0 mm 0.00 in0.0 mm 0.00 in0.0 mm
05:40 AM 68.4°F20.2°C 61.6°F16.4°C 79% Calm Calm -- 30.02 in1016.6 mb 0.00 in0.0 mm 0.00 in0.0 mm 0.00 in0.0 mm
05:45 AM 69.1°F20.6°C 61.9°F16.6°C 78% Calm Calm -- 30.02 in1016.6 mb 0.00 in0.0 mm 0.00 in0.0 mm 0.00 in0.0 mm
05:50 AM 70.2°F21.2°C 62.6°F17.0°C 77% Calm Calm -- 30.02 in1016.6 mb 0.00 in0.0 mm 0.00 in0.0 mm 0.00 in0.0 mm
05:55 AM 71.1°F21.7°C 62.4°F16.9°C 74% Calm Calm 3.0 mph4.8 kmh 30.02 in1016.6 mb 0.00 in0.0 mm 0.00 in0.0 mm 0.00 in0.0 mm
06:00 AM 71.6°F22.0°C 62.1°F16.7°C 72% Calm Calm 6.0 mph9.7 kmh 30.02 in1016.6 mb 0.00 in0.0 mm 0.00 in0.0 mm 0.00 in0.0 mm
06:05 AM 72.0°F22.2°C 62.4°F16.9°C 72% 1.0 mph SSW1.6 kmh SSW 6.0 mph9.7 kmh 30.02 in1016.6 mb 0.00 in0.0 mm 0.00 in0.0 mm 0.00 in0.0 mm
06:10 AM 72.3°F22.4°C 62.0°F16.7°C 70% 2.0 mph SSW3.2 kmh SSW 7.0 mph11.3 kmh 30.01 in1016.3 mb 0.00 in0.0 mm 0.00 in0.0 mm 0.00 in0.0 mm
06:15 AM 72.9°F22.7°C 62.5°F16.9°C 70% 2.0 mph S3.2 kmh S 7.0 mph11.3 kmh 30.01 in1016.3 mb 0.00 in0.0 mm 0.00 in0.0 mm 0.00 in0.0 mm
06:20 AM 73.0°F22.8°C 62.7°F17.1°C 70% 3.0 mph S4.8 kmh S 7.0 mph11.3 kmh 30.01 in1016.3 mb 0.00 in0.0 mm 0.00 in0.0 mm 0.00 in0.0 mm
06:25 AM 73.2°F22.9°C 62.4°F16.9°C 69% 3.0 mph SSW4.8 kmh SSW 7.0 mph11.3 kmh 30.01 in1016.3 mb 0.00 in0.0 mm 0.00 in0.0 mm 0.00 in0.0 mm
06:30 AM 73.6°F23.1°C 62.4°F16.9°C 68% 3.0 mph SSW4.8 kmh SSW 7.0 mph11.3 kmh 30.01 in1016.3 mb 0.00 in0.0 mm 0.00 in0.0 mm 0.00 in0.0 mm
06:35 AM 73.9°F23.3°C 62.3°F16.8°C 67% 3.0 mph SSW4.8 kmh SSW 7.0 mph11.3 kmh 30.01 in1016.3 mb 0.00 in0.0 mm 0.00 in0.0 mm 0.00 in0.0 mm
06:40 AM 74.1°F23.4°C 62.5°F16.9°C 67% 3.0 mph SSW4.8 kmh SSW 8.0 mph12.9 kmh 30.01 in1016.3 mb 0.00 in0.0 mm 0.00 in0.0 mm 0.00 in0.0 mm
06:45 AM 74.5°F23.6°C 62.4°F16.9°C 66% 4.0 mph SSW6.4 kmh SSW 8.0 mph12.9 kmh 30.01 in1016.3 mb 0.00 in0.0 mm 0.00 in0.0 mm 0.00 in0.0 mm
06:50 AM 74.8°F23.8°C 62.3°F16.8°C 65% 3.0 mph SSW4.8 kmh SSW 7.0 mph11.3 kmh 30.01 in1016.3 mb 0.00 in0.0 mm 0.00 in0.0 mm 0.00 in0.0 mm
06:55 AM 75.2°F24.0°C 62.2°F16.8°C 64% 3.0 mph SSW4.8 kmh SSW 7.0 mph11.3 kmh 30.00 in1015.9 mb 0.00 in0.0 mm 0.00 in0.0 mm 0.00 in0.0 mm
07:00 AM 75.7°F24.3°C 62.7°F17.1°C 64% 3.0 mph SSW4.8 kmh SSW 7.0 mph11.3 kmh 30.01 in1016.3 mb 0.00 in0.0 mm 0.00 in0.0 mm 0.00 in0.0 mm
07:05 AM 75.7°F24.3°C 62.2°F16.8°C 63% 3.0 mph SSW4.8 kmh SSW 7.0 mph11.3 kmh 30.00 in1015.9 mb 0.00 in0.0 mm 0.00 in0.0 mm 0.00 in0.0 mm
07:10 AM 75.9°F24.4°C 63.7°F17.6°C 66% 3.0 mph SSW4.8 kmh SSW 7.0 mph11.3 kmh 30.00 in1015.9 mb 0.00 in0.0 mm 0.00 in0.0 mm 0.00 in0.0 mm
07:15 AM 76.3°F24.6°C 64.1°F17.8°C 66% 3.0 mph SSW4.8 kmh SSW 7.0 mph11.3 kmh 30.00 in1015.9 mb 0.00 in0.0 mm 0.00 in0.0 mm 0.00 in0.0 mm
07:20 AM 76.6°F24.8°C 64.4°F18.0°C 66% 3.0 mph SSW4.8 kmh SSW 7.0 mph11.3 kmh 30.00 in1015.9 mb 0.00 in0.0 mm 0.00 in0.0 mm 0.00 in0.0 mm
07:25 AM 77.5°F25.3°C 64.4°F18.0°C 64% 3.0 mph SSW4.8 kmh SSW 7.0 mph11.3 kmh 30.00 in1015.9 mb 0.00 in0.0 mm 0.00 in0.0 mm 0.00 in0.0 mm
07:30 AM 77.5°F25.3°C 63.9°F17.7°C 63% 3.0 mph S4.8 kmh S 9.0 mph14.5 kmh 29.99 in1015.6 mb 0.00 in0.0 mm 0.00 in0.0 mm 0.00 in0.0 mm
07:35 AM 77.7°F25.4°C 64.6°F18.1°C 64% 3.0 mph S4.8 kmh S 9.0 mph14.5 kmh 29.99 in1015.6 mb 0.00 in0.0 mm 0.00 in0.0 mm 0.00 in0.0 mm
07:40 AM 78.4°F25.8°C 64.8°F18.2°C 63% 3.0 mph S4.8 kmh S 9.0 mph14.5 kmh 29.99 in1015.6 mb 0.00 in0.0 mm 0.00 in0.0 mm 0.00 in0.0 mm
07:45 AM 78.6°F25.9°C 64.5°F18.1°C 62% 3.0 mph S4.8 kmh S 8.0 mph12.9 kmh 29.99 in1015.6 mb 0.00 in0.0 mm 0.00 in0.0 mm 0.00 in0.0 mm
07:50 AM 78.4°F25.8°C 64.8°F18.2°C 63% 3.0 mph S4.8 kmh S 9.0 mph14.5 kmh 29.98 in1015.2 mb 0.00 in0.0 mm 0.00 in0.0 mm 0.00 in0.0 mm
07:55 AM 79.0°F26.1°C 65.3°F18.5°C 63% 4.0 mph SSW6.4 kmh SSW 9.0 mph14.5 kmh 29.98 in1015.2 mb 0.00 in0.0 mm 0.00 in0.0 mm 0.00 in0.0 mm
08:00 AM 78.6°F25.9°C 64.5°F18.1°C 62% 4.0 mph SSW6.4 kmh SSW 9.0 mph14.5 kmh 29.98 in1015.2 mb 0.00 in0.0 mm 0.00 in0.0 mm 0.00 in0.0 mm
08:05 AM 79.0°F26.1°C 65.3°F18.5°C 63% 4.0 mph SW6.4 kmh SW 9.0 mph14.5 kmh 29.98 in1015.2 mb 0.00 in0.0 mm 0.00 in0.0 mm 0.00 in0.0 mm
08:10 AM 79.3°F26.3°C 65.2°F18.4°C 62% 4.0 mph SW6.4 kmh SW 8.0 mph12.9 kmh 29.97 in1014.9 mb 0.00 in0.0 mm 0.00 in0.0 mm 0.00 in0.0 mm
08:15 AM 79.7°F26.5°C 65.1°F18.4°C 61% 3.0 mph SSW4.8 kmh SSW 8.0 mph12.9 kmh 29.97 in1014.9 mb 0.00 in0.0 mm 0.00 in0.0 mm 0.00 in0.0 mm
08:20 AM 80.2°F26.8°C 66.0°F18.9°C 62% 4.0 mph SSW6.4 kmh SSW 8.0 mph12.9 kmh 29.97 in1014.9 mb 0.00 in0.0 mm 0.00 in0.0 mm 0.00 in0.0 mm
08:25 AM 80.4°F26.9°C 65.7°F18.7°C 61% 4.0 mph SW6.4 kmh SW 8.0 mph12.9 kmh 29.97 in1014.9 mb 0.00 in0.0 mm 0.00 in0.0 mm 0.00 in0.0 mm
08:30 AM 81.1°F27.3°C 65.9°F18.8°C 60% 3.0 mph SSW4.8 kmh SSW 6.0 mph9.7 kmh 29.96 in1014.6 mb 0.00 in0.0 mm 0.00 in0.0 mm 0.00 in0.0 mm
08:35 AM 81.3°F27.4°C 66.1°F18.9°C 60% 2.0 mph SSW3.2 kmh SSW 9.0 mph14.5 kmh 29.96 in1014.6 mb 0.00 in0.0 mm 0.00 in0.0 mm 0.00 in0.0 mm
08:40 AM 81.7°F27.6°C 66.9°F19.4°C 61% 3.0 mph SW4.8 kmh SW 9.0 mph14.5 kmh 29.96 in1014.6 mb 0.00 in0.0 mm 0.00 in0.0 mm 0.00 in0.0 mm
08:45 AM 81.5°F27.5°C 67.2°F19.6°C 62% 3.0 mph SSW4.8 kmh SSW 8.0 mph12.9 kmh 29.96 in1014.6 mb 0.00 in0.0 mm 0.00 in0.0 mm 0.00 in0.0 mm
08:50 AM 81.9°F27.7°C 67.6°F19.8°C 62% 3.0 mph S4.8 kmh S 9.0 mph14.5 kmh 29.96 in1014.6 mb 0.00 in0.0 mm 0.00 in0.0 mm 0.00 in0.0 mm
08:55 AM 82.0°F27.8°C 67.3°F19.6°C 61% 4.0 mph S6.4 kmh S 9.0 mph14.5 kmh 29.96 in1014.6 mb 0.00 in0.0 mm 0.00 in0.0 mm 0.00 in0.0 mm
09:00 AM 82.2°F27.9°C 67.4°F19.7°C 61% 4.0 mph SSW6.4 kmh SSW 11.0 mph17.7 kmh 29.95 in1014.2 mb 0.00 in0.0 mm 0.00 in0.0 mm 0.00 in0.0 mm
09:05 AM 82.6°F28.1°C 66.8°F19.3°C 59% 5.0 mph SSW8.0 kmh SSW 12.0 mph19.3 kmh 29.95 in1014.2 mb 0.00 in0.0 mm 0.00 in0.0 mm 0.00 in0.0 mm
09:10 AM 82.9°F28.3°C 66.6°F19.2°C 58% 5.0 mph SSW8.0 kmh SSW 12.0 mph19.3 kmh 29.95 in1014.2 mb 0.00 in0.0 mm 0.00 in0.0 mm 0.00 in0.0 mm
09:15 AM 82.9°F28.3°C 67.1°F19.5°C 59% 5.0 mph SSW8.0 kmh SSW 12.0 mph19.3 kmh 29.95 in1014.2 mb 0.00 in0.0 mm 0.00 in0.0 mm 0.00 in0.0 mm
09:20 AM 82.0°F27.8°C 65.8°F18.8°C 58% 5.0 mph SSW8.0 kmh SSW 12.0 mph19.3 kmh 29.95 in1014.2 mb 0.00 in0.0 mm 0.00 in0.0 mm 0.00 in0.0 mm
09:25 AM 82.6°F28.1°C 66.8°F19.3°C 59% 5.0 mph SSW8.0 kmh SSW 11.0 mph17.7 kmh 29.95 in1014.2 mb 0.00 in0.0 mm 0.00 in0.0 mm 0.00 in0.0 mm
09:30 AM 82.8°F28.2°C 66.0°F18.9°C 57% 5.0 mph SSW8.0 kmh SSW 14.0 mph22.5 kmh 29.95 in1014.2 mb 0.00 in0.0 mm 0.00 in0.0 mm 0.00 in0.0 mm
09:35 AM 82.2°F27.9°C 65.5°F18.6°C 57% 6.0 mph SSW9.7 kmh SSW 14.0 mph22.5 kmh 29.94 in1013.9 mb 0.00 in0.0 mm 0.00 in0.0 mm 0.00 in0.0 mm
09:40 AM 82.6°F28.1°C 66.3°F19.1°C 58% 6.0 mph S9.7 kmh S 10.0 mph16.1 kmh 29.94 in1013.9 mb 0.00 in0.0 mm 0.00 in0.0 mm 0.00 in0.0 mm
09:45 AM 82.0°F27.8°C 65.3°F18.5°C 57% 5.0 mph SSW8.0 kmh SSW 13.0 mph20.9 kmh 29.94 in1013.9 mb 0.00 in0.0 mm 0.00 in0.0 mm 0.00 in0.0 mm
09:50 AM 81.9°F27.7°C 65.6°F18.7°C 58% 5.0 mph SSW8.0 kmh SSW 16.0 mph25.7 kmh 29.94 in1013.9 mb 0.00 in0.0 mm 0.00 in0.0 mm 0.00 in0.0 mm
09:55 AM 82.0°F27.8°C 65.8°F18.8°C 58% 6.0 mph SSW9.7 kmh SSW 16.0 mph25.7 kmh 29.94 in1013.9 mb 0.00 in0.0 mm 0.00 in0.0 mm 0.00 in0.0 mm
10:00 AM 82.6°F28.1°C 66.3°F19.1°C 58% 7.0 mph S11.3 kmh S 14.0 mph22.5 kmh 29.94 in1013.9 mb 0.00 in0.0 mm 0.00 in0.0 mm 0.00 in0.0 mm
10:05 AM 82.8°F28.2°C 66.0°F18.9°C 57% 7.0 mph S11.3 kmh S 12.0 mph19.3 kmh 29.93 in1013.5 mb 0.00 in0.0 mm 0.00 in0.0 mm 0.00 in0.0 mm
10:10 AM 82.9°F28.3°C 66.6°F19.2°C 58% 6.0 mph S9.7 kmh S 12.0 mph19.3 kmh 29.93 in1013.5 mb 0.00 in0.0 mm 0.00 in0.0 mm 0.00 in0.0 mm
10:15 AM 83.8°F28.8°C 67.5°F19.7°C 58% 6.0 mph S9.7 kmh S 12.0 mph19.3 kmh 29.93 in1013.5 mb 0.00 in0.0 mm 0.00 in0.0 mm 0.00 in0.0 mm
10:20 AM 84.0°F28.9°C 66.1°F18.9°C 55% 6.0 mph S9.7 kmh S 12.0 mph19.3 kmh 29.93 in1013.5 mb 0.00 in0.0 mm 0.00 in0.0 mm 0.00 in0.0 mm
10:25 AM 83.7°F28.7°C 65.8°F18.8°C 55% 6.0 mph S9.7 kmh S 13.0 mph20.9 kmh 29.93 in1013.5 mb 0.00 in0.0 mm 0.00 in0.0 mm 0.00 in0.0 mm
10:30 AM 84.0°F28.9°C 66.6°F19.2°C 56% 6.0 mph S9.7 kmh S 17.0 mph27.4 kmh 29.92 in1013.2 mb 0.00 in0.0 mm 0.00 in0.0 mm 0.00 in0.0 mm
10:35 AM 84.6°F29.2°C 66.1°F18.9°C 54% 7.0 mph SSW11.3 kmh SSW 17.0 mph27.4 kmh 29.92 in1013.2 mb 0.00 in0.0 mm 0.00 in0.0 mm 0.00 in0.0 mm
10:40 AM 84.7°F29.3°C 67.3°F19.6°C 56% 7.0 mph SSW11.3 kmh SSW 13.0 mph20.9 kmh 29.92 in1013.2 mb 0.00 in0.0 mm 0.00 in0.0 mm 0.00 in0.0 mm
10:45 AM 84.7°F29.3°C 66.3°F19.1°C 54% 7.0 mph S11.3 kmh S 17.0 mph27.4 kmh 29.91 in1012.9 mb 0.00 in0.0 mm 0.00 in0.0 mm 0.00 in0.0 mm
10:50 AM 84.6°F29.2°C 66.1°F18.9°C 54% 7.0 mph S11.3 kmh S 17.0 mph27.4 kmh 29.91 in1012.9 mb 0.00 in0.0 mm 0.00 in0.0 mm 0.00 in0.0 mm
10:55 AM 84.9°F29.4°C 66.4°F19.1°C 54% 8.0 mph SSW12.9 kmh SSW 14.0 mph22.5 kmh 29.91 in1012.9 mb 0.00 in0.0 mm 0.00 in0.0 mm 0.00 in0.0 mm
11:00 AM 85.1°F29.5°C 65.5°F18.6°C 52% 8.0 mph S12.9 kmh S 15.0 mph24.1 kmh 29.91 in1012.9 mb 0.00 in0.0 mm 0.00 in0.0 mm 0.00 in0.0 mm
11:05 AM 85.3°F29.6°C 66.2°F19.0°C 53% 8.0 mph S12.9 kmh S 18.0 mph29.0 kmh 29.91 in1012.9 mb 0.00 in0.0 mm 0.00 in0.0 mm 0.00 in0.0 mm
11:10 AM 85.3°F29.6°C 66.2°F19.0°C 53% 8.0 mph S12.9 kmh S 19.0 mph30.6 kmh 29.91 in1012.9 mb 0.00 in0.0 mm 0.00 in0.0 mm 0.00 in0.0 mm
11:15 AM 85.5°F29.7°C 65.8°F18.8°C 52% 8.0 mph SSW12.9 kmh SSW 19.0 mph30.6 kmh 29.90 in1012.5 mb 0.00 in0.0 mm 0.00 in0.0 mm 0.00 in0.0 mm
11:20 AM 85.5°F29.7°C 65.8°F18.8°C 52% 8.0 mph S12.9 kmh S 18.0 mph29.0 kmh 29.90 in1012.5 mb 0.00 in0.0 mm 0.00 in0.0 mm 0.00 in0.0 mm
11:25 AM 85.8°F29.9°C 65.6°F18.7°C 51% 8.0 mph S12.9 kmh S 18.0 mph29.0 kmh 29.89 in1012.2 mb 0.00 in0.0 mm 0.00 in0.0 mm 0.00 in0.0 mm
11:30 AM 85.3°F29.6°C 65.7°F18.7°C 52% 9.0 mph S14.5 kmh S 15.0 mph24.1 kmh 29.89 in1012.2 mb 0.00 in0.0 mm 0.00 in0.0 mm 0.00 in0.0 mm
11:35 AM 86.0°F30.0°C 66.3°F19.1°C 52% 8.0 mph S12.9 kmh S 15.0 mph24.1 kmh 29.89 in1012.2 mb 0.00 in0.0 mm 0.00 in0.0 mm 0.00 in0.0 mm
11:40 AM 85.1°F29.5°C 66.0°F18.9°C 53% 8.0 mph S12.9 kmh S 18.0 mph29.0 kmh 29.89 in1012.2 mb 0.00 in0.0 mm 0.00 in0.0 mm 0.00 in0.0 mm
11:45 AM 86.0°F30.0°C 65.8°F18.8°C 51% 7.0 mph SSW11.3 kmh SSW 18.0 mph29.0 kmh 29.89 in1012.2 mb 0.00 in0.0 mm 0.00 in0.0 mm 0.00 in0.0 mm
11:50 AM 86.5°F30.3°C 66.3°F19.1°C 51% 7.0 mph SSW11.3 kmh SSW 16.0 mph25.7 kmh 29.89 in1012.2 mb 0.00 in0.0 mm 0.00 in0.0 mm 0.00 in0.0 mm
11:55 AM 85.5°F29.7°C 65.8°F18.8°C 52% 7.0 mph SSW11.3 kmh SSW 13.0 mph20.9 kmh 29.88 in1011.9 mb 0.00 in0.0 mm 0.00 in0.0 mm 0.00 in0.0 mm
12:00 PM 84.7°F29.3°C 65.2°F18.4°C 52% 7.0 mph SSW11.3 kmh SSW 15.0 mph24.1 kmh 29.88 in1011.9 mb 0.00 in0.0 mm 0.00 in0.0 mm 0.00 in0.0 mm
12:05 PM 85.8°F29.9°C 66.7°F19.3°C 53% 6.0 mph SSW9.7 kmh SSW 15.0 mph24.1 kmh 29.88 in1011.9 mb 0.00 in0.0 mm 0.00 in0.0 mm 0.00 in0.0 mm
12:10 PM 86.4°F30.2°C 66.7°F19.3°C 52% 6.0 mph SW9.7 kmh SW 14.0 mph22.5 kmh 29.87 in1011.5 mb 0.00 in0.0 mm 0.00 in0.0 mm 0.00 in0.0 mm
12:15 PM 86.5°F30.3°C 66.3°F19.1°C 51% 6.0 mph SSW9.7 kmh SSW 16.0 mph25.7 kmh 29.87 in1011.5 mb 0.00 in0.0 mm 0.00 in0.0 mm 0.00 in0.0 mm
12:20 PM 86.5°F30.3°C 66.8°F19.3°C 52% 7.0 mph S11.3 kmh S 16.0 mph25.7 kmh 29.88 in1011.9 mb 0.00 in0.0 mm 0.00 in0.0 mm 0.00 in0.0 mm
12:25 PM 85.8°F29.9°C 65.6°F18.7°C 51% 8.0 mph SSW12.9 kmh SSW 19.0 mph30.6 kmh 29.87 in1011.5 mb 0.00 in0.0 mm 0.00 in0.0 mm 0.00 in0.0 mm
12:30 PM 85.6°F29.8°C 66.5°F19.2°C 53% 8.0 mph SSW12.9 kmh SSW 20.0 mph32.2 kmh 29.87 in1011.5 mb 0.00 in0.0 mm 0.00 in0.0 mm 0.00 in0.0 mm
12:35 PM 86.5°F30.3°C 67.4°F19.7°C 53% 8.0 mph SSW12.9 kmh SSW 20.0 mph32.2 kmh 29.86 in1011.2 mb 0.00 in0.0 mm 0.00 in0.0 mm 0.00 in0.0 mm
12:40 PM 86.7°F30.4°C 65.9°F18.8°C 50% 8.0 mph S12.9 kmh S 18.0 mph29.0 kmh 29.86 in1011.2 mb 0.00 in0.0 mm 0.00 in0.0 mm 0.00 in0.0 mm
12:45 PM 87.1°F30.6°C 66.8°F19.3°C 51% 8.0 mph S12.9 kmh S 18.0 mph29.0 kmh 29.86 in1011.2 mb 0.00 in0.0 mm 0.00 in0.0 mm 0.00 in0.0 mm
12:50 PM 87.4°F30.8°C 66.5°F19.2°C 50% 8.0 mph S12.9 kmh S 15.0 mph24.1 kmh 29.85 in1010.8 mb 0.00 in0.0 mm 0.00 in0.0 mm 0.00 in0.0 mm
12:55 PM 87.4°F30.8°C 66.5°F19.2°C 50% 8.0 mph S12.9 kmh S 15.0 mph24.1 kmh 29.86 in1011.2 mb 0.00 in0.0 mm 0.00 in0.0 mm 0.00 in0.0 mm
01:00 PM 86.4°F30.2°C 65.5°F18.6°C 50% 8.0 mph SSW12.9 kmh SSW 14.0 mph22.5 kmh 29.85 in1010.8 mb 0.00 in0.0 mm 0.00 in0.0 mm 0.00 in0.0 mm
01:05 PM 86.2°F30.1°C 65.9°F18.8°C 51% 8.0 mph SSW12.9 kmh SSW 17.0 mph27.4 kmh 29.85 in1010.8 mb 0.00 in0.0 mm 0.00 in0.0 mm 0.00 in0.0 mm
01:10 PM 86.2°F30.1°C 65.4°F18.6°C 50% 9.0 mph S14.5 kmh S 17.0 mph27.4 kmh 29.85 in1010.8 mb 0.00 in0.0 mm 0.00 in0.0 mm 0.00 in0.0 mm
01:15 PM 86.7°F30.4°C 65.9°F18.8°C 50% 9.0 mph SSW14.5 kmh SSW 16.0 mph25.7 kmh 29.85 in1010.8 mb 0.00 in0.0 mm 0.00 in0.0 mm 0.00 in0.0 mm
01:20 PM 87.1°F30.6°C 66.8°F19.3°C 51% 8.0 mph SSW12.9 kmh SSW 16.0 mph25.7 kmh 29.85 in1010.8 mb 0.00 in0.0 mm 0.00 in0.0 mm 0.00 in0.0 mm
01:25 PM 87.1°F30.6°C 65.6°F18.7°C 49% 8.0 mph S12.9 kmh S 20.0 mph32.2 kmh 29.85 in1010.8 mb 0.00 in0.0 mm 0.00 in0.0 mm 0.00 in0.0 mm
01:30 PM 86.7°F30.4°C 65.3°F18.5°C 49% 7.0 mph S11.3 kmh S 20.0 mph32.2 kmh 29.85 in1010.8 mb 0.00 in0.0 mm 0.00 in0.0 mm 0.00 in0.0 mm
01:35 PM 86.4°F30.2°C 65.5°F18.6°C 50% 8.0 mph SSW12.9 kmh SSW 17.0 mph27.4 kmh 29.84 in1010.5 mb 0.00 in0.0 mm 0.00 in0.0 mm 0.00 in0.0 mm
01:40 PM 86.7°F30.4°C 65.9°F18.8°C 50% 8.0 mph SW12.9 kmh SW 17.0 mph27.4 kmh 29.84 in1010.5 mb 0.00 in0.0 mm 0.00 in0.0 mm 0.00 in0.0 mm
01:45 PM 87.4°F30.8°C 66.5°F19.2°C 50% 8.0 mph SSW12.9 kmh SSW 16.0 mph25.7 kmh 29.84 in1010.5 mb 0.00 in0.0 mm 0.00 in0.0 mm 0.00 in0.0 mm
01:50 PM 87.3°F30.7°C 66.4°F19.1°C 50% 8.0 mph SSW12.9 kmh SSW 16.0 mph25.7 kmh 29.84 in1010.5 mb 0.00 in0.0 mm 0.00 in0.0 mm 0.00 in0.0 mm
01:55 PM 86.7°F30.4°C 64.7°F18.2°C 48% 8.0 mph SSW12.9 kmh SSW 16.0 mph25.7 kmh 29.83 in1010.2 mb 0.00 in0.0 mm 0.00 in0.0 mm 0.00 in0.0 mm
02:00 PM 86.4°F30.2°C 66.1°F18.9°C 51% 8.0 mph SSW12.9 kmh SSW 17.0 mph27.4 kmh 29.83 in1010.2 mb 0.00 in0.0 mm 0.00 in0.0 mm 0.00 in0.0 mm
02:05 PM 87.1°F30.6°C 66.2°F19.0°C 50% 8.0 mph SSW12.9 kmh SSW 17.0 mph27.4 kmh 29.83 in1010.2 mb 0.00 in0.0 mm 0.00 in0.0 mm 0.00 in0.0 mm
02:10 PM 87.3°F30.7°C 65.2°F18.4°C 48% 8.0 mph SSW12.9 kmh SSW 13.0 mph20.9 kmh 29.83 in1010.2 mb 0.00 in0.0 mm 0.00 in0.0 mm 0.00 in0.0 mm
02:15 PM 86.7°F30.4°C 65.9°F18.8°C 50% 7.0 mph SSW11.3 kmh SSW 13.0 mph20.9 kmh 29.82 in1009.8 mb 0.00 in0.0 mm 0.00 in0.0 mm 0.00 in0.0 mm
02:20 PM 85.6°F29.8°C 64.3°F17.9°C 49% 6.0 mph SSW9.7 kmh SSW 14.0 mph22.5 kmh 29.83 in1010.2 mb 0.00 in0.0 mm 0.00 in0.0 mm 0.00 in0.0 mm
02:25 PM 86.7°F30.4°C 65.9°F18.8°C 50% 6.0 mph SSW9.7 kmh SSW 16.0 mph25.7 kmh 29.82 in1009.8 mb 0.00 in0.0 mm 0.00 in0.0 mm 0.00 in0.0 mm
02:30 PM 87.3°F30.7°C 66.4°F19.1°C 50% 7.0 mph SSW11.3 kmh SSW 16.0 mph25.7 kmh 29.82 in1009.8 mb 0.00 in0.0 mm 0.00 in0.0 mm 0.00 in0.0 mm
02:35 PM 88.0°F31.1°C 65.2°F18.4°C 47% 8.0 mph SSW12.9 kmh SSW 15.0 mph24.1 kmh 29.82 in1009.8 mb 0.00 in0.0 mm 0.00 in0.0 mm 0.00 in0.0 mm
02:40 PM 88.0°F31.1°C 65.2°F18.4°C 47% 7.0 mph SW11.3 kmh SW 18.0 mph29.0 kmh 29.82 in1009.8 mb 0.00 in0.0 mm 0.00 in0.0 mm 0.00 in0.0 mm
02:45 PM 88.0°F31.1°C 64.0°F17.8°C 45% 6.0 mph SW9.7 kmh SW 18.0 mph29.0 kmh 29.82 in1009.8 mb 0.00 in0.0 mm 0.00 in0.0 mm 0.00 in0.0 mm
02:50 PM 88.0°F31.1°C 65.2°F18.4°C 47% 7.0 mph SW11.3 kmh SW 15.0 mph24.1 kmh 29.81 in1009.5 mb 0.00 in0.0 mm 0.00 in0.0 mm 0.00 in0.0 mm
02:55 PM 88.0°F31.1°C 65.8°F18.8°C 48% 8.0 mph SSW12.9 kmh SSW 14.0 mph22.5 kmh 29.81 in1009.5 mb 0.00 in0.0 mm 0.00 in0.0 mm 0.00 in0.0 mm
03:00 PM 88.0°F31.1°C 65.8°F18.8°C 48% 7.0 mph SSW11.3 kmh SSW 13.0 mph20.9 kmh 29.81 in1009.5 mb 0.00 in0.0 mm 0.00 in0.0 mm 0.00 in0.0 mm
03:05 PM 88.2°F31.2°C 65.4°F18.6°C 47% 7.0 mph SSW11.3 kmh SSW 14.0 mph22.5 kmh 29.80 in1009.1 mb 0.00 in0.0 mm 0.00 in0.0 mm 0.00 in0.0 mm
03:10 PM 88.3°F31.3°C 63.7°F17.6°C 44% 7.0 mph SSW11.3 kmh SSW 14.0 mph22.5 kmh 29.81 in1009.5 mb 0.00 in0.0 mm 0.00 in0.0 mm 0.00 in0.0 mm
03:15 PM 87.6°F30.9°C 62.4°F16.9°C 43% 7.0 mph SSW11.3 kmh SSW 16.0 mph25.7 kmh 29.81 in1009.5 mb 0.00 in0.0 mm 0.00 in0.0 mm 0.00 in0.0 mm
03:20 PM 88.2°F31.2°C 64.1°F17.8°C 45% 8.0 mph SW12.9 kmh SW 16.0 mph25.7 kmh 29.80 in1009.1 mb 0.00 in0.0 mm 0.00 in0.0 mm 0.00 in0.0 mm
03:25 PM 88.3°F31.3°C 63.7°F17.6°C 44% 7.0 mph SW11.3 kmh SW 13.0 mph20.9 kmh 29.80 in1009.1 mb 0.00 in0.0 mm 0.00 in0.0 mm 0.00 in0.0 mm
03:30 PM 88.3°F31.3°C 63.7°F17.6°C 44% 6.0 mph SW9.7 kmh SW 14.0 mph22.5 kmh 29.80 in1009.1 mb 0.00 in0.0 mm 0.00 in0.0 mm 0.00 in0.0 mm
03:35 PM 87.8°F31.0°C 63.2°F17.3°C 44% 6.0 mph SW9.7 kmh SW 14.0 mph22.5 kmh 29.80 in1009.1 mb 0.00 in0.0 mm 0.00 in0.0 mm 0.00 in0.0 mm
03:40 PM 87.6°F30.9°C 63.7°F17.6°C 45% 7.0 mph SW11.3 kmh SW 14.0 mph22.5 kmh 29.80 in1009.1 mb 0.00 in0.0 mm 0.00 in0.0 mm 0.00 in0.0 mm
03:45 PM 88.2°F31.2°C 62.2°F16.8°C 42% 6.0 mph SW9.7 kmh SW 15.0 mph24.1 kmh 29.80 in1009.1 mb 0.00 in0.0 mm 0.00 in0.0 mm 0.00 in0.0 mm
03:50 PM 88.3°F31.3°C 63.0°F17.2°C 43% 6.0 mph SW9.7 kmh SW 15.0 mph24.1 kmh 29.79 in1008.8 mb 0.00 in0.0 mm 0.00 in0.0 mm 0.00 in0.0 mm
03:55 PM 88.0°F31.1°C 63.3°F17.4°C 44% 6.0 mph SW9.7 kmh SW 16.0 mph25.7 kmh 29.79 in1008.8 mb 0.00 in0.0 mm 0.00 in0.0 mm 0.00 in0.0 mm
04:00 PM 88.2°F31.2°C 62.8°F17.1°C 43% 6.0 mph SSW9.7 kmh SSW 16.0 mph25.7 kmh 29.79 in1008.8 mb 0.00 in0.0 mm 0.00 in0.0 mm 0.00 in0.0 mm
04:05 PM 88.0°F31.1°C 64.0°F17.8°C 45% 6.0 mph SSW9.7 kmh SSW 14.0 mph22.5 kmh 29.79 in1008.8 mb 0.00 in0.0 mm 0.00 in0.0 mm 0.00 in0.0 mm
04:10 PM 87.8°F31.0°C 62.5°F16.9°C 43% 6.0 mph SSW9.7 kmh SSW 18.0 mph29.0 kmh 29.79 in1008.8 mb 0.00 in0.0 mm 0.00 in0.0 mm 0.00 in0.0 mm
04:15 PM 87.8°F31.0°C 63.2°F17.3°C 44% 7.0 mph SSW11.3 kmh SSW 18.0 mph29.0 kmh 29.78 in1008.5 mb 0.00 in0.0 mm 0.00 in0.0 mm 0.00 in0.0 mm
04:20 PM 88.2°F31.2°C 62.8°F17.1°C 43% 7.0 mph SW11.3 kmh SW 18.0 mph29.0 kmh 29.78 in1008.5 mb 0.00 in0.0 mm 0.00 in0.0 mm 0.00 in0.0 mm
04:25 PM 88.0°F31.1°C 62.7°F17.1°C 43% 6.0 mph SW9.7 kmh SW 18.0 mph29.0 kmh 29.78 in1008.5 mb 0.00 in0.0 mm 0.00 in0.0 mm 0.00 in0.0 mm
04:30 PM 87.8°F31.0°C 62.5°F16.9°C 43% 6.0 mph SW9.7 kmh SW 16.0 mph25.7 kmh 29.78 in1008.5 mb 0.00 in0.0 mm 0.00 in0.0 mm 0.00 in0.0 mm
04:35 PM 87.6°F30.9°C 62.4°F16.9°C 43% 6.0 mph SSW9.7 kmh SSW 16.0 mph25.7 kmh 29.78 in1008.5 mb 0.00 in0.0 mm 0.00 in0.0 mm 0.00 in0.0 mm
04:40 PM 87.4°F30.8°C 62.8°F17.1°C 44% 7.0 mph SSW11.3 kmh SSW 13.0 mph20.9 kmh 29.78 in1008.5 mb 0.00 in0.0 mm 0.00 in0.0 mm 0.00 in0.0 mm
04:45 PM 87.6°F30.9°C 63.0°F17.2°C 44% 7.0 mph SSW11.3 kmh SSW 14.0 mph22.5 kmh 29.77 in1008.1 mb 0.00 in0.0 mm 0.00 in0.0 mm 0.00 in0.0 mm
04:50 PM 87.6°F30.9°C 62.4°F16.9°C 43% 6.0 mph SSW9.7 kmh SSW 14.0 mph22.5 kmh 29.77 in1008.1 mb 0.00 in0.0 mm 0.00 in0.0 mm 0.00 in0.0 mm
04:55 PM 87.4°F30.8°C 62.2°F16.8°C 43% 6.0 mph SSW9.7 kmh SSW 15.0 mph24.1 kmh 29.77 in1008.1 mb 0.00 in0.0 mm 0.00 in0.0 mm 0.00 in0.0 mm
05:00 PM 87.4°F30.8°C 63.5°F17.5°C 45% 7.0 mph SSW11.3 kmh SSW 15.0 mph24.1 kmh 29.77 in1008.1 mb 0.00 in0.0 mm 0.00 in0.0 mm 0.00 in0.0 mm
05:05 PM 87.4°F30.8°C 61.5°F16.4°C 42% 6.0 mph SSW9.7 kmh SSW 13.0 mph20.9 kmh 29.77 in1008.1 mb 0.00 in0.0 mm 0.00 in0.0 mm 0.00 in0.0 mm
05:10 PM 87.3°F30.7°C 62.7°F17.1°C 44% 6.0 mph SSW9.7 kmh SSW 13.0 mph20.9 kmh 29.77 in1008.1 mb 0.00 in0.0 mm 0.00 in0.0 mm 0.00 in0.0 mm
05:15 PM 86.7°F30.4°C 62.2°F16.8°C 44% 7.0 mph SSW11.3 kmh SSW 12.0 mph19.3 kmh 29.77 in1008.1 mb 0.00 in0.0 mm 0.00 in0.0 mm 0.00 in0.0 mm
05:20 PM 86.0°F30.0°C 61.5°F16.4°C 44% 6.0 mph SSW9.7 kmh SSW 12.0 mph19.3 kmh 29.77 in1008.1 mb 0.00 in0.0 mm 0.00 in0.0 mm 0.00 in0.0 mm
05:25 PM 85.8°F29.9°C 61.4°F16.3°C 44% 5.0 mph SSW8.0 kmh SSW 10.0 mph16.1 kmh 29.77 in1008.1 mb 0.00 in0.0 mm 0.00 in0.0 mm 0.00 in0.0 mm
05:30 PM 86.2°F30.1°C 62.3°F16.8°C 45% 5.0 mph SSW8.0 kmh SSW 11.0 mph17.7 kmh 29.77 in1008.1 mb 0.00 in0.0 mm 0.00 in0.0 mm 0.00 in0.0 mm
05:35 PM 86.4°F30.2°C 62.5°F16.9°C 45% 5.0 mph SSW8.0 kmh SSW 11.0 mph17.7 kmh 29.77 in1008.1 mb 0.00 in0.0 mm 0.00 in0.0 mm 0.00 in0.0 mm
05:40 PM 86.4°F30.2°C 61.9°F16.6°C 44% 5.0 mph SSW8.0 kmh SSW 11.0 mph17.7 kmh 29.77 in1008.1 mb 0.00 in0.0 mm 0.00 in0.0 mm 0.00 in0.0 mm
05:45 PM 86.5°F30.3°C 61.4°F16.3°C 43% 5.0 mph SSW8.0 kmh SSW 11.0 mph17.7 kmh 29.77 in1008.1 mb 0.00 in0.0 mm 0.00 in0.0 mm 0.00 in0.0 mm
05:50 PM 86.2°F30.1°C 60.4°F15.8°C 42% 5.0 mph SW8.0 kmh SW 11.0 mph17.7 kmh 29.77 in1008.1 mb 0.00 in0.0 mm 0.00 in0.0 mm 0.00 in0.0 mm
05:55 PM 85.1°F29.5°C 60.7°F15.9°C 44% 5.0 mph SW8.0 kmh SW 10.0 mph16.1 kmh 29.77 in1008.1 mb 0.00 in0.0 mm 0.00 in0.0 mm 0.00 in0.0 mm
06:00 PM 84.6°F29.2°C 60.2°F15.7°C 44% 4.0 mph SW6.4 kmh SW 7.0 mph11.3 kmh 29.77 in1008.1 mb 0.00 in0.0 mm 0.00 in0.0 mm 0.00 in0.0 mm
06:05 PM 84.0°F28.9°C 61.0°F16.1°C 46% 4.0 mph SW6.4 kmh SW 7.0 mph11.3 kmh 29.77 in1008.1 mb 0.00 in0.0 mm 0.00 in0.0 mm 0.00 in0.0 mm
06:10 PM 83.5°F28.6°C 61.1°F16.2°C 47% 3.0 mph SSW4.8 kmh SSW 5.0 mph8.0 kmh 29.77 in1008.1 mb 0.00 in0.0 mm 0.00 in0.0 mm 0.00 in0.0 mm
06:15 PM 82.8°F28.2°C 61.1°F16.2°C 48% 2.0 mph SSW3.2 kmh SSW 3.0 mph4.8 kmh 29.77 in1008.1 mb 0.00 in0.0 mm 0.00 in0.0 mm 0.00 in0.0 mm
06:20 PM 82.0°F27.8°C 62.1°F16.7°C 51% 1.0 mph SW1.6 kmh SW 2.0 mph3.2 kmh 29.77 in1008.1 mb 0.00 in0.0 mm 0.00 in0.0 mm 0.00 in0.0 mm
06:25 PM 81.5°F27.5°C 61.6°F16.4°C 51% Calm Calm 9.0 mph14.5 kmh 29.79 in1008.8 mb 0.00 in0.0 mm 0.00 in0.0 mm 0.00 in0.0 mm
06:30 PM 79.2°F26.2°C 61.1°F16.2°C 54% 2.0 mph WNW3.2 kmh WNW 22.0 mph35.4 kmh 29.80 in1009.1 mb 0.00 in0.0 mm 0.00 in0.0 mm 0.00 in0.0 mm
06:35 PM 73.8°F23.2°C 60.4°F15.8°C 63% 6.0 mph WNW9.7 kmh WNW 22.0 mph35.4 kmh 29.79 in1008.8 mb 0.03 in0.8 mm 0.36 in9.1 mm 0.03 in0.8 mm
06:40 PM 72.1°F22.3°C 60.2°F15.7°C 66% 9.0 mph NW14.5 kmh NW 17.0 mph27.4 kmh 29.79 in1008.8 mb 0.03 in0.8 mm 0.00 in0.0 mm 0.03 in0.8 mm
06:45 PM 71.2°F21.8°C 60.1°F15.6°C 68% 9.0 mph NW14.5 kmh NW 14.0 mph22.5 kmh 29.79 in1008.8 mb 0.03 in0.8 mm 0.00 in0.0 mm 0.03 in0.8 mm
06:50 PM 71.2°F21.8°C 60.5°F15.8°C 69% 8.0 mph NW12.9 kmh NW 20.0 mph32.2 kmh 29.81 in1009.5 mb 0.03 in0.8 mm 0.00 in0.0 mm 0.03 in0.8 mm
06:55 PM 70.0°F21.1°C 61.3°F16.3°C 74% 8.0 mph NW12.9 kmh NW 24.0 mph38.6 kmh 29.81 in1009.5 mb 0.03 in0.8 mm 0.00 in0.0 mm 0.03 in0.8 mm
07:00 PM 69.3°F20.7°C 61.4°F16.3°C 76% 11.0 mph NNW17.7 kmh NNW 24.0 mph38.6 kmh 29.83 in1010.2 mb 0.03 in0.8 mm 0.00 in0.0 mm 0.03 in0.8 mm
07:05 PM 68.7°F20.4°C 60.8°F16.0°C 76% 12.0 mph NNW19.3 kmh NNW 22.0 mph35.4 kmh 29.84 in1010.5 mb 0.03 in0.8 mm 0.00 in0.0 mm 0.03 in0.8 mm
07:10 PM 68.5°F20.3°C 60.7°F15.9°C 76% 13.0 mph NNW20.9 kmh NNW 29.0 mph46.7 kmh 29.85 in1010.8 mb 0.03 in0.8 mm 0.00 in0.0 mm 0.03 in0.8 mm
07:15 PM 68.2°F20.1°C 59.6°F15.3°C 74% 14.0 mph NW22.5 kmh NW 29.0 mph46.7 kmh 29.85 in1010.8 mb 0.03 in0.8 mm 0.00 in0.0 mm 0.03 in0.8 mm
07:20 PM 67.5°F19.7°C 59.6°F15.3°C 76% 16.0 mph NW25.7 kmh NW 29.0 mph46.7 kmh 29.86 in1011.2 mb 0.03 in0.8 mm 0.00 in0.0 mm 0.03 in0.8 mm
07:25 PM 66.2°F19.0°C 58.8°F14.9°C 77% 16.0 mph NNW25.7 kmh NNW 31.0 mph49.9 kmh 29.86 in1011.2 mb 0.05 in1.3 mm 0.24 in6.1 mm 0.05 in1.3 mm
07:30 PM 65.5°F18.6°C 58.1°F14.5°C 77% 15.0 mph NNW24.1 kmh NNW 33.0 mph53.1 kmh 29.86 in1011.2 mb 0.04 in1.0 mm 0.00 in0.0 mm 0.05 in1.3 mm
07:35 PM 65.1°F18.4°C 58.1°F14.5°C 78% 16.0 mph NNW25.7 kmh NNW 33.0 mph53.1 kmh 29.86 in1011.2 mb 0.02 in0.5 mm 0.00 in0.0 mm 0.05 in1.3 mm
07:40 PM 64.9°F18.3°C 58.3°F14.6°C 79% 15.0 mph NNW24.1 kmh NNW 28.0 mph45.1 kmh 29.85 in1010.8 mb 0.02 in0.5 mm 0.00 in0.0 mm 0.05 in1.3 mm
07:45 PM 64.8°F18.2°C 58.1°F14.5°C 79% 12.0 mph NNW19.3 kmh NNW 19.0 mph30.6 kmh 29.85 in1010.8 mb 0.02 in0.5 mm 0.00 in0.0 mm 0.05 in1.3 mm
07:50 PM 64.4°F18.0°C 57.7°F14.3°C 79% 11.0 mph NNW17.7 kmh NNW 20.0 mph32.2 kmh 29.86 in1011.2 mb 0.02 in0.5 mm 0.00 in0.0 mm 0.05 in1.3 mm
07:55 PM 64.0°F17.8°C 56.7°F13.7°C 77% 11.0 mph NNW17.7 kmh NNW 22.0 mph35.4 kmh 29.88 in1011.9 mb 0.02 in0.5 mm 0.00 in0.0 mm 0.05 in1.3 mm
08:00 PM 63.7°F17.6°C 56.7°F13.7°C 78% 11.0 mph NNW17.7 kmh NNW 22.0 mph35.4 kmh 29.91 in1012.9 mb 0.02 in0.5 mm 0.00 in0.0 mm 0.05 in1.3 mm
08:05 PM 63.1°F17.3°C 55.8°F13.2°C 77% 10.0 mph N16.1 kmh N 20.0 mph32.2 kmh 29.92 in1013.2 mb 0.02 in0.5 mm 0.00 in0.0 mm 0.06 in1.5 mm
08:10 PM 62.2°F16.8°C 56.0°F13.3°C 80% 8.0 mph NNE12.9 kmh NNE 17.0 mph27.4 kmh 29.93 in1013.5 mb 0.03 in0.8 mm 0.12 in3.0 mm 0.06 in1.5 mm
08:15 PM 61.5°F16.4°C 55.6°F13.1°C 81% 6.0 mph NNE9.7 kmh NNE 16.0 mph25.7 kmh 29.94 in1013.9 mb 0.03 in0.8 mm 0.00 in0.0 mm 0.06 in1.5 mm
08:20 PM 61.3°F16.3°C 55.8°F13.2°C 82% 7.0 mph NE11.3 kmh NE 13.0 mph20.9 kmh 29.95 in1014.2 mb 0.04 in1.0 mm 0.12 in3.0 mm 0.07 in1.8 mm
08:25 PM 61.2°F16.2°C 55.6°F13.1°C 82% 6.0 mph NNE9.7 kmh NNE 12.0 mph19.3 kmh 29.95 in1014.2 mb 0.03 in0.8 mm 0.00 in0.0 mm 0.08 in2.0 mm
08:30 PM 61.0°F16.1°C 55.8°F13.2°C 83% 5.0 mph NNE8.0 kmh NNE 12.0 mph19.3 kmh 29.95 in1014.2 mb 0.04 in1.0 mm 0.12 in3.0 mm 0.09 in2.3 mm
08:35 PM 60.8°F16.0°C 55.9°F13.3°C 84% 5.0 mph N8.0 kmh N 17.0 mph27.4 kmh 29.94 in1013.9 mb 0.05 in1.3 mm 0.12 in3.0 mm 0.09 in2.3 mm
08:40 PM 60.6°F15.9°C 56.1°F13.4°C 85% 6.0 mph NNE9.7 kmh NNE 17.0 mph27.4 kmh 29.94 in1013.9 mb 0.05 in1.3 mm 0.00 in0.0 mm 0.09 in2.3 mm
08:45 PM 60.4°F15.8°C 56.2°F13.4°C 86% 7.0 mph NE11.3 kmh NE 12.0 mph19.3 kmh 29.94 in1013.9 mb 0.06 in1.5 mm 0.12 in3.0 mm 0.10 in2.5 mm
08:50 PM 59.9°F15.5°C 55.7°F13.2°C 86% 7.0 mph NE11.3 kmh NE 13.0 mph20.9 kmh 29.95 in1014.2 mb 0.06 in1.5 mm 0.00 in0.0 mm 0.10 in2.5 mm
08:55 PM 59.5°F15.3°C 55.7°F13.2°C 87% 7.0 mph NE11.3 kmh NE 13.0 mph20.9 kmh 29.96 in1014.6 mb 0.06 in1.5 mm 0.00 in0.0 mm 0.10 in2.5 mm
09:00 PM 59.4°F15.2°C 55.8°F13.2°C 88% 7.0 mph NE11.3 kmh NE 11.0 mph17.7 kmh 29.96 in1014.6 mb 0.06 in1.5 mm 0.00 in0.0 mm 0.10 in2.5 mm
09:05 PM 59.2°F15.1°C 55.6°F13.1°C 88% 6.0 mph NE9.7 kmh NE 11.0 mph17.7 kmh 29.98 in1015.2 mb 0.06 in1.5 mm 0.00 in0.0 mm 0.11 in2.8 mm
09:10 PM 59.2°F15.1°C 55.6°F13.1°C 88% 4.0 mph E6.4 kmh E 6.0 mph9.7 kmh 30.00 in1015.9 mb 0.06 in1.5 mm 0.00 in0.0 mm 0.13 in3.3 mm
09:15 PM 59.0°F15.0°C 53.8°F12.1°C 83% 3.0 mph ENE4.8 kmh ENE 11.0 mph17.7 kmh 29.99 in1015.6 mb 0.09 in2.3 mm 0.36 in9.1 mm 0.16 in4.1 mm
09:20 PM 59.2°F15.1°C 54.0°F12.2°C 83% 3.0 mph NE4.8 kmh NE 12.0 mph19.3 kmh 29.98 in1015.2 mb 0.09 in2.3 mm 0.00 in0.0 mm 0.17 in4.3 mm
09:25 PM 58.8°F14.9°C 53.3°F11.8°C 82% 4.0 mph NE6.4 kmh NE 13.0 mph20.9 kmh 29.98 in1015.2 mb 0.09 in2.3 mm 0.00 in0.0 mm 0.17 in4.3 mm
09:30 PM 58.6°F14.8°C 53.5°F11.9°C 83% 5.0 mph NE8.0 kmh NE 13.0 mph20.9 kmh 29.98 in1015.2 mb 0.09 in2.3 mm 0.00 in0.0 mm 0.17 in4.3 mm
09:35 PM 58.5°F14.7°C 53.0°F11.7°C 82% 6.0 mph NE9.7 kmh NE 12.0 mph19.3 kmh 29.97 in1014.9 mb 0.08 in2.0 mm 0.00 in0.0 mm 0.17 in4.3 mm
09:40 PM 58.5°F14.7°C 52.6°F11.4°C 81% 6.0 mph NE9.7 kmh NE 12.0 mph19.3 kmh 29.98 in1015.2 mb 0.08 in2.0 mm 0.00 in0.0 mm 0.17 in4.3 mm
09:45 PM 58.3°F14.6°C 52.5°F11.4°C 81% 6.0 mph NE9.7 kmh NE 14.0 mph22.5 kmh 29.99 in1015.6 mb 0.07 in1.8 mm 0.00 in0.0 mm 0.17 in4.3 mm
09:50 PM 58.3°F14.6°C 52.1°F11.2°C 80% 6.0 mph NE9.7 kmh NE 14.0 mph22.5 kmh 29.99 in1015.6 mb 0.07 in1.8 mm 0.00 in0.0 mm 0.17 in4.3 mm
09:55 PM 58.1°F14.5°C 52.6°F11.4°C 82% 6.0 mph NE9.7 kmh NE 11.0 mph17.7 kmh 29.99 in1015.6 mb 0.07 in1.8 mm 0.00 in0.0 mm 0.17 in4.3 mm
10:00 PM 58.1°F14.5°C 53.3°F11.8°C 84% 6.0 mph NE9.7 kmh NE 12.0 mph19.3 kmh 30.00 in1015.9 mb 0.07 in1.8 mm 0.00 in0.0 mm 0.17 in4.3 mm
10:05 PM 57.9°F14.4°C 53.4°F11.9°C 85% 5.0 mph NE8.0 kmh NE 12.0 mph19.3 kmh 30.00 in1015.9 mb 0.06 in1.5 mm 0.00 in0.0 mm 0.17 in4.3 mm
10:10 PM 57.7°F14.3°C 52.9°F11.6°C 84% 4.0 mph NE6.4 kmh NE 8.0 mph12.9 kmh 30.00 in1015.9 mb 0.05 in1.3 mm 0.00 in0.0 mm 0.17 in4.3 mm
10:15 PM 57.7°F14.3°C 52.6°F11.4°C 83% 4.0 mph NE6.4 kmh NE 8.0 mph12.9 kmh 30.00 in1015.9 mb 0.02 in0.5 mm 0.00 in0.0 mm 0.17 in4.3 mm
10:20 PM 57.6°F14.2°C 52.1°F11.2°C 82% 4.0 mph NE6.4 kmh NE 10.0 mph16.1 kmh 30.00 in1015.9 mb 0.01 in0.3 mm 0.00 in0.0 mm 0.17 in4.3 mm
10:25 PM 57.6°F14.2°C 52.8°F11.6°C 84% 5.0 mph NE8.0 kmh NE 10.0 mph16.1 kmh 30.01 in1016.3 mb 0.00 in0.0 mm 0.00 in0.0 mm 0.17 in4.3 mm
10:30 PM 57.4°F14.1°C 53.2°F11.8°C 86% 5.0 mph NE8.0 kmh NE 10.0 mph16.1 kmh 30.01 in1016.3 mb 0.00 in0.0 mm 0.00 in0.0 mm 0.17 in4.3 mm
10:35 PM 57.2°F14.0°C 53.0°F11.7°C 86% 4.0 mph NE6.4 kmh NE 7.0 mph11.3 kmh 30.01 in1016.3 mb 0.00 in0.0 mm 0.00 in0.0 mm 0.17 in4.3 mm
10:40 PM 57.0°F13.9°C 52.9°F11.6°C 86% 4.0 mph NE6.4 kmh NE 9.0 mph14.5 kmh 30.02 in1016.6 mb 0.00 in0.0 mm 0.00 in0.0 mm 0.17 in4.3 mm
10:45 PM 56.9°F13.8°C 51.5°F10.8°C 82% 5.0 mph NE8.0 kmh NE 14.0 mph22.5 kmh 30.02 in1016.6 mb 0.00 in0.0 mm 0.00 in0.0 mm 0.17 in4.3 mm
10:50 PM 56.6°F13.7°C 51.2°F10.7°C 82% 6.0 mph NE9.7 kmh NE 14.0 mph22.5 kmh 30.02 in1016.6 mb 0.00 in0.0 mm 0.00 in0.0 mm 0.17 in4.3 mm
10:55 PM 56.0°F13.3°C 50.9°F10.5°C 83% 4.0 mph NE6.4 kmh NE 10.0 mph16.1 kmh 30.02 in1016.6 mb 0.00 in0.0 mm 0.00 in0.0 mm 0.17 in4.3 mm
11:00 PM 55.6°F13.1°C 50.5°F10.3°C 83% 3.0 mph NE4.8 kmh NE 9.0 mph14.5 kmh 30.02 in1016.6 mb 0.00 in0.0 mm 0.00 in0.0 mm 0.17 in4.3 mm
11:05 PM 55.4°F13.0°C 50.3°F10.2°C 83% 4.0 mph NE6.4 kmh NE 9.0 mph14.5 kmh 30.02 in1016.6 mb 0.00 in0.0 mm 0.00 in0.0 mm 0.13 in3.3 mm
11:10 PM 55.2°F12.9°C 50.4°F10.2°C 84% 4.0 mph NE6.4 kmh NE 9.0 mph14.5 kmh 30.02 in1016.6 mb 0.00 in0.0 mm 0.00 in0.0 mm 0.13 in3.3 mm
11:15 PM 55.1°F12.8°C 50.4°F10.2°C 84% 4.0 mph NE6.4 kmh NE 8.0 mph12.9 kmh 30.03 in1016.9 mb 0.00 in0.0 mm 0.00 in0.0 mm 0.13 in3.3 mm
11:20 PM 54.9°F12.7°C 50.5°F10.3°C 85% 4.0 mph NE6.4 kmh NE 8.0 mph12.9 kmh 30.03 in1016.9 mb 0.00 in0.0 mm 0.00 in0.0 mm 0.13 in3.3 mm
11:25 PM 54.9°F12.7°C 49.8°F9.9°C 83% 3.0 mph NE4.8 kmh NE 8.0 mph12.9 kmh 30.03 in1016.9 mb 0.00 in0.0 mm 0.00 in0.0 mm 0.13 in3.3 mm
11:30 PM 54.8°F12.7°C 49.7°F9.8°C 83% 4.0 mph NE6.4 kmh NE 8.0 mph12.9 kmh 30.03 in1016.9 mb 0.00 in0.0 mm 0.00 in0.0 mm 0.13 in3.3 mm
11:35 PM 54.7°F12.6°C 49.3°F9.6°C 82% 4.0 mph NE6.4 kmh NE 8.0 mph12.9 kmh 30.03 in1016.9 mb 0.00 in0.0 mm 0.00 in0.0 mm 0.13 in3.3 mm
11:40 PM 54.5°F12.5°C 49.1°F9.5°C 82% 4.0 mph NE6.4 kmh NE 11.0 mph17.7 kmh 30.03 in1016.9 mb 0.00 in0.0 mm 0.00 in0.0 mm 0.13 in3.3 mm
11:45 PM 54.5°F12.5°C 49.1°F9.5°C 82% 4.0 mph NE6.4 kmh NE 11.0 mph17.7 kmh 30.04 in1017.3 mb 0.00 in0.0 mm 0.00 in0.0 mm 0.13 in3.3 mm
11:50 PM 54.4°F12.4°C 49.0°F9.4°C 82% 4.0 mph NE6.4 kmh NE 11.0 mph17.7 kmh 30.04 in1017.3 mb 0.00 in0.0 mm 0.00 in0.0 mm 0.13 in3.3 mm
11:55 PM 54.4°F12.4°C 48.7°F9.3°C 81% 3.0 mph NE4.8 kmh NE 8.0 mph12.9 kmh 30.04 in1017.3 mb 0.00 in0.0 mm 0.00 in0.0 mm 0.13 in3.3 mm